Skip Navigation Links
Home and Info
Weather Forecast
Mountsorrel Weather
Climate Reports
Fun Stuff
Storm Chasing Pictures
Weather Tools
Me Only!
Stormchaser Mountsorrel Leicester current Weather StormChaser Mountsorrel Leicester current Weather


22 October 2014 Climate report for Mountsorrel.

 

Mountsorrel Weather Climate values are an adverage reading taken during the hour before the one displayed.

The bottom value is the Mean or Total of all the values during the day.


TimeAir TempGround TempDew PointRH%RainSun MinutesWind RunWind HiWind Dir BarometerWxWxTxt
Oct 22 2014 10:00PM 10.2 9.4 8.3 88 0.4 --- 5 11 SWWind direction 1019.4 Overcast Light Rain Overcast Light Rain
Oct 22 2014 9:00PM 9.8 8.4 8.0 88 0.4 --- 3 9 SSWWind direction 1019.5 Overcast Light Rain Overcast Light Rain
Oct 22 2014 8:00PM 10.0 6.8 7.9 86 --- --- 1 5 SSWWind direction 1020.0 Half Clouds Half Clouds
Oct 22 2014 7:00PM 10.9 9.6 8.4 85 --- --- 3 6 SSWWind direction 1020.4 Mostly Clouds Mostly Clouds
Oct 22 2014 6:00PM 11.2 10.6 8.6 83 --- 37 2 6 SWWind direction 1020.4 Half Clouds Half Clouds
Oct 22 2014 5:00PM 11.1 12.1 8.7 85 --- 21 6 12 SWWind direction 1020.6 Mostly Clouds Mostly Clouds
Oct 22 2014 4:00PM 11.0 12.2 8.7 85 0.4 --- 6 9 WSWWind direction 1021.2 Overcast Light Rain Overcast Light Rain
Oct 22 2014 3:00PM 11.1 12.5 8.1 81 0.4 --- 3 8 WSWWind direction 1021.7 Overcast Light Rain Overcast Light Rain
Oct 22 2014 2:00PM 11.9 12.4 6.7 70 --- --- 9 14 WWind direction 1022.0 Half Clouds Half Clouds
Oct 22 2014 1:00PM 12.4 14.5 6.5 67 --- 2 9 16 WNWWind direction 1022.3 Few Clouds Few Clouds
Oct 22 2014 12:00PM 11.7 12.2 6.4 69 --- 12 9 15 WWind direction 1022.2
Oct 22 2014 11:00AM 10.8 11.6 5.7 70 --- 6 10 15 WNWWind direction 1022.4
Oct 22 2014 10:00AM 9.5 9.5 5.1 73 --- --- 10 15 WWind direction 1022.2
Oct 22 2014 9:00AM 9.0 7.4 4.8 75 --- --- 8 13 WNWWind direction 1022.2
Oct 22 2014 8:00AM 8.7 7.2 4.7 75 --- --- 6 13 NWWind direction 1021.4
Oct 22 2014 7:00AM 8.6 7.5 4.4 75 --- --- 7 11 WNWWind direction 1020.9
Oct 22 2014 6:00AM 8.1 6.9 4.3 77 --- --- 6 10 WWind direction 1020.5 Few Clouds Few Clouds
Oct 22 2014 5:00AM 8.1 6.0 4.1 75 --- --- 9 13 WWind direction 1020.0
Oct 22 2014 4:00AM 8.1 7.0 3.9 74 --- --- 10 14 NWWind direction 1019.9 Mostly Clouds Mostly Clouds
Oct 22 2014 3:00AM 7.8 6.0 3.3 73 --- --- 9 16 WWind direction 1019.6
Oct 22 2014 2:00AM 7.3 6.2 3.5 76 --- --- 9 15 WWind direction 1018.9 Few Clouds Few Clouds
Oct 22 2014 1:00AM 7.2 5.1 3.8 79 --- --- 9 15 NWWind direction 1018.4
Totals 9.8 9.1 6.1 77 1.6 01:18 149    1020.7   








The Mountsorrel Weather Station is located in Mountsorrel which is just South of Loughborough and just North of Leicester in Leicestershire.
It is maintained by Stormchaser Stuart Robinson whose passion is for all type of weather but especially the more severe types of weather such as Hurricanes, Typhoon and Tornadoes.